createdAt,value
2023-04-22T00:04:06.219Z,6.35
2023-04-22T00:14:14.506Z,6.53
2023-04-22T00:24:29.852Z,6.13
2023-04-22T00:34:34.395Z,5.60
2023-04-22T00:44:37.079Z,6.00
2023-04-22T00:54:41.885Z,6.05
2023-04-22T01:04:44.504Z,5.55
2023-04-22T01:14:46.636Z,5.30
2023-04-22T01:24:54.210Z,5.60
2023-04-22T01:34:59.387Z,5.40
2023-04-22T01:45:01.833Z,7.40
2023-04-22T01:55:04.434Z,5.53
2023-04-22T02:05:10.375Z,6.53
2023-04-22T02:15:12.710Z,6.00
2023-04-22T02:25:14.970Z,6.07
2023-04-22T02:35:17.959Z,6.07
2023-04-22T02:45:21.037Z,5.43
2023-04-22T02:55:29.184Z,5.80
2023-04-22T03:05:33.701Z,5.32
2023-04-22T03:15:41.043Z,5.32
2023-04-22T03:25:45.835Z,5.13
2023-04-22T03:35:50.731Z,5.37
2023-04-22T03:45:53.629Z,5.30
2023-04-22T03:56:02.481Z,4.70
2023-04-22T04:06:07.204Z,5.15
2023-04-22T04:16:11.864Z,5.57
2023-04-22T04:26:29.827Z,5.15
2023-04-22T04:36:48.475Z,5.72
2023-04-22T04:47:05.209Z,5.10
2023-04-22T04:57:17.434Z,4.35
2023-04-22T05:07:22.641Z,4.30
2023-04-22T05:17:29.183Z,4.93
2023-04-22T05:27:35.087Z,4.82
2023-04-22T05:37:44.453Z,4.82
2023-04-22T05:47:51.189Z,4.90
2023-04-22T05:58:04.056Z,5.15
2023-04-22T06:08:20.483Z,4.85
2023-04-22T06:18:27.450Z,4.80
2023-04-22T06:28:31.231Z,4.90
2023-04-22T06:38:39.734Z,5.35
2023-04-22T06:49:00.761Z,5.00
2023-04-22T06:59:25.368Z,5.10
2023-04-22T07:09:27.844Z,4.65
2023-04-22T07:19:31.177Z,4.47
2023-04-22T07:29:39.857Z,5.15
2023-04-22T07:39:44.514Z,4.28
2023-04-22T07:49:49.569Z,3.72
2023-04-22T07:59:58.988Z,3.88
2023-04-22T08:10:03.990Z,3.80
2023-04-22T08:20:09.277Z,4.05
2023-04-22T08:30:12.838Z,3.40
2023-04-22T08:40:17.409Z,3.40
2023-04-22T08:50:25.614Z,2.78
2023-04-22T09:00:32.497Z,2.45
2023-04-22T09:10:37.918Z,2.85
2023-04-22T09:20:42.741Z,2.20
2023-04-22T09:30:47.432Z,4.18
2023-04-22T09:40:52.032Z,2.20
2023-04-22T09:50:56.714Z,2.40
2023-04-22T10:01:03.816Z,2.70
2023-04-22T10:11:06.413Z,2.53
2023-04-22T10:21:08.699Z,3.35
2023-04-22T10:31:23.899Z,2.67
2023-04-22T10:41:29.581Z,2.80
2023-04-22T10:51:58.784Z,2.75
2023-04-22T11:02:08.290Z,2.30
2023-04-22T11:12:35.828Z,2.63
2023-04-22T11:22:42.831Z,2.33
2023-04-22T11:32:56.606Z,2.50
2023-04-22T11:43:03.513Z,2.58
2023-04-22T11:53:16.899Z,3.00
2023-04-22T12:03:26.454Z,3.10
2023-04-22T12:13:38.979Z,3.55
2023-04-22T12:23:46.072Z,2.53
2023-04-22T12:33:48.418Z,2.47
2023-04-22T12:43:55.742Z,2.42
2023-04-22T12:54:00.073Z,2.70
2023-04-22T13:04:05.034Z,3.15
2023-04-22T13:14:09.844Z,2.70
2023-04-22T13:24:16.937Z,2.88
2023-04-22T13:34:21.447Z,2.40
2023-04-22T13:44:26.343Z,3.15
2023-04-22T13:54:36.665Z,3.10
2023-04-22T14:04:41.754Z,3.53
2023-04-22T14:14:46.424Z,2.65
2023-04-22T14:24:56.182Z,3.15
2023-04-22T14:35:00.994Z,2.78
2023-04-22T14:45:06.248Z,3.40
2023-04-22T14:55:21.940Z,3.33
2023-04-22T15:05:29.024Z,4.15
2023-04-22T15:15:33.480Z,3.92
2023-04-22T15:25:35.992Z,4.20
2023-04-22T15:35:38.211Z,3.60
2023-04-22T15:45:40.576Z,2.90
2023-04-22T15:55:42.842Z,3.00
2023-04-22T16:05:52.976Z,3.47
2023-04-22T16:15:57.880Z,2.97
2023-04-22T16:26:03.033Z,2.38
2023-04-22T16:36:09.226Z,2.92
2023-04-22T16:46:16.070Z,3.75
2023-04-22T16:56:21.051Z,2.78
2023-04-22T17:06:25.451Z,2.28
2023-04-22T17:16:32.632Z,2.80
2023-04-22T17:26:34.840Z,3.05
2023-04-22T17:36:40.745Z,2.58
2023-04-22T17:46:48.050Z,3.22
2023-04-22T17:56:54.944Z,4.00
2023-04-22T18:06:57.213Z,4.15
2023-04-22T18:17:03.021Z,3.15
2023-04-22T18:27:05.728Z,4.38
2023-04-22T18:37:11.961Z,3.55
2023-04-22T18:47:18.801Z,3.97
2023-04-22T18:57:29.356Z,4.72
2023-04-22T19:07:37.600Z,4.70
2023-04-22T19:17:46.833Z,5.32
2023-04-22T19:27:54.035Z,5.40
2023-04-22T19:37:56.292Z,6.53
2023-04-22T19:48:01.251Z,6.60
2023-04-22T19:58:20.351Z,5.45
2023-04-22T20:08:30.217Z,5.75
2023-04-22T20:18:32.779Z,7.20
2023-04-22T20:28:54.365Z,5.72
2023-04-22T20:39:01.799Z,5.70
2023-04-22T20:49:04.024Z,5.75
2023-04-22T20:59:08.649Z,4.57
2023-04-22T21:09:11.338Z,5.43
2023-04-22T21:19:14.014Z,4.88
2023-04-22T21:29:18.573Z,5.20
2023-04-22T21:39:27.714Z,4.35
2023-04-22T21:49:30.092Z,4.25
2023-04-22T21:59:35.256Z,4.18
2023-04-22T22:09:37.588Z,5.43
2023-04-22T22:19:42.349Z,6.82
2023-04-22T22:29:47.825Z,6.40
2023-04-22T22:39:50.161Z,6.25
2023-04-22T22:49:52.555Z,6.05
2023-04-22T22:59:54.735Z,5.88
2023-04-22T23:09:59.293Z,6.22
2023-04-22T23:20:02.098Z,7.53
2023-04-22T23:30:09.802Z,7.00
2023-04-22T23:40:16.776Z,8.55
2023-04-22T23:50:19.428Z,7.55
